Terminal Aerodrome Forecast
Issued by NWS Shreveport, LA

Current Version | Previous Version | Text Only | Print | Product List | Glossary On
Versions: 1 2 3 4 5 6 7 8 9 10 11 12
604
FTUS44 KSHV 111140
TAFSHV
TAF
KSHV 111140Z 1112/1212 24004KT P6SM SKC
     FM111500 24008KT P6SM SCT250
     FM111800 25011KT P6SM SCT250
     FM120000 27008KT P6SM SCT250
     FM120600 32010KT P6SM FEW050=

USA.gov is the U.S. government's official web portal to all federal, state and local government web resources and services.